createdAt,value
2023-03-30T00:03:46.185Z,5.97
2023-03-30T00:08:03.904Z,7.45
2023-03-30T00:12:21.152Z,6.30
2023-03-30T00:16:38.506Z,6.53
2023-03-30T00:20:56.770Z,7.45
2023-03-30T00:25:16.083Z,5.65
2023-03-30T00:29:33.585Z,5.15
2023-03-30T00:33:51.844Z,7.95
2023-03-30T00:38:09.081Z,7.22
2023-03-30T00:42:26.337Z,5.03
2023-03-30T00:46:43.686Z,6.00
2023-03-30T00:51:11.346Z,5.53
2023-03-30T00:55:30.897Z,8.40
2023-03-30T00:59:49.705Z,6.93
2023-03-30T01:04:09.877Z,7.03
2023-03-30T01:08:32.640Z,5.28
2023-03-30T01:12:50.381Z,6.60
2023-03-30T01:17:32.064Z,6.68
2023-03-30T01:21:55.659Z,5.70
2023-03-30T01:26:48.806Z,3.30
2023-03-30T01:31:25.719Z,4.50
2023-03-30T01:35:58.205Z,6.85
2023-03-30T01:40:30.269Z,6.25
2023-03-30T01:45:07.911Z,5.82
2023-03-30T01:49:37.916Z,7.25
2023-03-30T01:54:12.645Z,6.57
2023-03-30T01:58:37.592Z,4.18
2023-03-30T02:03:05.867Z,6.05
2023-03-30T02:07:28.104Z,5.33
2023-03-30T02:11:50.096Z,6.28
2023-03-30T02:16:13.619Z,5.53
2023-03-30T02:20:33.089Z,4.90
2023-03-30T02:24:54.125Z,8.40
2023-03-30T02:29:13.187Z,4.40
2023-03-30T02:34:04.545Z,4.15
2023-03-30T02:38:28.239Z,4.30
2023-03-30T02:43:07.121Z,5.28
2023-03-30T02:47:41.329Z,6.13
2023-03-30T02:52:10.411Z,5.85
2023-03-30T03:00:59.538Z,5.25
2023-03-30T03:05:17.398Z,8.25
2023-03-30T03:09:34.678Z,14.93
2023-03-30T03:13:52.380Z,25.23
2023-03-30T03:18:10.516Z,10.32
2023-03-30T03:22:27.708Z,24.70
2023-03-30T03:26:45.717Z,14.88
2023-03-30T03:31:04.037Z,9.03
2023-03-30T03:35:21.775Z,6.25
2023-03-30T03:39:39.592Z,9.30
2023-03-30T03:43:56.758Z,5.30
2023-03-30T03:48:16.117Z,11.93
2023-03-30T03:52:34.705Z,6.45
2023-03-30T03:56:52.101Z,7.20
2023-03-30T04:01:09.358Z,7.88
2023-03-30T04:05:26.963Z,7.43
2023-03-30T04:09:44.187Z,6.57
2023-03-30T04:14:01.624Z,5.25
2023-03-30T04:18:19.073Z,5.45
2023-03-30T04:22:36.624Z,7.13
2023-03-30T04:26:53.858Z,5.75
2023-03-30T04:31:13.198Z,8.95
2023-03-30T04:35:32.189Z,6.07
2023-03-30T04:39:50.594Z,9.77
2023-03-30T04:44:09.820Z,5.28
2023-03-30T04:48:27.020Z,6.88
2023-03-30T04:52:44.207Z,5.72
2023-03-30T04:57:01.878Z,6.90
2023-03-30T05:01:19.266Z,5.72
2023-03-30T05:05:36.882Z,9.75
2023-03-30T05:09:54.061Z,6.30
2023-03-30T05:14:12.344Z,5.97
2023-03-30T05:18:29.688Z,10.52
2023-03-30T05:22:48.177Z,7.47
2023-03-30T05:27:06.826Z,8.18
2023-03-30T05:35:41.292Z,10.50
2023-03-30T05:39:58.569Z,5.50
2023-03-30T05:44:15.925Z,11.40
2023-03-30T05:48:34.235Z,9.20
2023-03-30T05:52:52.678Z,10.02
2023-03-30T05:57:10.022Z,11.00
2023-03-30T06:01:27.842Z,12.77
2023-03-30T06:05:45.727Z,9.60
2023-03-30T06:10:03.293Z,13.67
2023-03-30T06:14:20.579Z,19.17
2023-03-30T06:18:38.360Z,12.57
2023-03-30T06:22:55.687Z,8.93
2023-03-30T06:27:13.275Z,15.57
2023-03-30T06:31:30.670Z,15.00
2023-03-30T06:35:50.774Z,10.75
2023-03-30T06:40:14.624Z,15.63
2023-03-30T06:44:32.557Z,12.00
2023-03-30T06:48:49.934Z,8.23
2023-03-30T06:53:07.697Z,11.00
2023-03-30T06:57:25.088Z,14.48
2023-03-30T07:01:42.735Z,16.50
2023-03-30T07:06:00.054Z,7.82
2023-03-30T07:10:17.731Z,10.50
2023-03-30T07:14:35.714Z,11.00
2023-03-30T07:18:53.301Z,10.53
2023-03-30T07:23:11.757Z,11.38
2023-03-30T07:27:29.197Z,7.35
2023-03-30T07:31:46.988Z,11.32
2023-03-30T07:36:05.609Z,9.00
2023-03-30T07:40:23.181Z,11.27
2023-03-30T07:44:41.255Z,7.15
2023-03-30T07:48:59.362Z,14.10
2023-03-30T07:53:17.036Z,13.02
2023-03-30T07:57:34.446Z,7.13
2023-03-30T08:01:54.618Z,13.45
2023-03-30T08:06:12.366Z,8.65
2023-03-30T08:10:30.183Z,14.30
2023-03-30T08:14:47.865Z,12.98
2023-03-30T08:19:05.410Z,9.48
2023-03-30T08:23:22.639Z,13.48
2023-03-30T08:27:39.905Z,12.40
2023-03-30T08:31:58.007Z,13.73
2023-03-30T08:36:15.580Z,12.73
2023-03-30T08:40:32.891Z,13.70
2023-03-30T08:44:54.838Z,16.90
2023-03-30T08:49:16.548Z,8.73
2023-03-30T08:53:34.684Z,12.88
2023-03-30T08:57:58.594Z,12.20
2023-03-30T09:02:23.650Z,11.38
2023-03-30T09:06:52.548Z,13.48
2023-03-30T09:11:19.123Z,9.48
2023-03-30T09:16:02.419Z,12.93
2023-03-30T09:20:25.794Z,17.83
2023-03-30T09:24:44.600Z,18.23
2023-03-30T09:29:14.755Z,14.23
2023-03-30T09:33:40.775Z,21.05
2023-03-30T09:37:58.211Z,12.88
2023-03-30T09:42:40.883Z,11.65
2023-03-30T09:46:59.698Z,13.05
2023-03-30T09:51:18.659Z,16.35
2023-03-30T09:55:37.986Z,10.63
2023-03-30T09:59:56.451Z,12.13
2023-03-30T10:04:16.510Z,10.88
2023-03-30T10:08:42.309Z,12.27
2023-03-30T10:13:14.429Z,8.65
2023-03-30T10:17:32.029Z,8.50
2023-03-30T10:21:55.034Z,7.60
2023-03-30T10:26:16.191Z,5.80
2023-03-30T10:30:33.751Z,6.00
2023-03-30T10:34:55.003Z,9.07
2023-03-30T10:39:20.066Z,6.47
2023-03-30T10:43:38.379Z,7.28
2023-03-30T10:48:30.730Z,5.55
2023-03-30T10:53:14.016Z,7.55
2023-03-30T10:57:44.815Z,6.82
2023-03-30T11:02:34.533Z,5.70
2023-03-30T11:06:54.567Z,4.03
2023-03-30T11:11:49.114Z,5.93
2023-03-30T11:16:06.984Z,9.60
2023-03-30T11:20:29.464Z,7.10
2023-03-30T11:24:50.788Z,6.20
2023-03-30T11:29:35.946Z,7.07
2023-03-30T11:34:21.697Z,9.60
2023-03-30T11:38:48.128Z,8.55
2023-03-30T11:43:05.474Z,9.38
2023-03-30T11:47:55.316Z,7.93
2023-03-30T11:52:37.541Z,8.98
2023-03-30T11:57:31.700Z,8.65
2023-03-30T12:02:17.149Z,7.97
2023-03-30T12:06:41.843Z,8.75
2023-03-30T12:11:12.878Z,9.63
2023-03-30T12:15:53.854Z,7.40
2023-03-30T12:20:14.289Z,5.72
2023-03-30T12:24:56.587Z,8.27
2023-03-30T12:33:51.383Z,6.82
2023-03-30T12:38:09.176Z,8.05
2023-03-30T12:42:35.876Z,6.28
2023-03-30T12:46:53.250Z,5.13
2023-03-30T12:51:53.027Z,5.60
2023-03-30T12:56:36.525Z,4.90
2023-03-30T13:01:27.288Z,7.53
2023-03-30T13:05:49.450Z,4.40
2023-03-30T13:10:31.847Z,6.97
2023-03-30T13:14:58.748Z,8.00
2023-03-30T13:19:28.041Z,5.57
2023-03-30T13:23:57.917Z,5.95
2023-03-30T13:28:39.302Z,6.32
2023-03-30T13:33:19.082Z,5.63
2023-03-30T13:38:04.278Z,3.03
2023-03-30T13:42:58.892Z,4.60
2023-03-30T13:47:40.689Z,5.10
2023-03-30T13:52:10.584Z,3.90
2023-03-30T13:56:31.440Z,6.00
2023-03-30T14:01:08.011Z,6.20
2023-03-30T14:05:32.144Z,7.15
2023-03-30T14:10:05.096Z,6.55
2023-03-30T14:14:46.472Z,8.88
2023-03-30T14:19:36.787Z,8.55
2023-03-30T14:23:55.240Z,4.43
2023-03-30T14:28:16.459Z,4.80
2023-03-30T14:32:35.180Z,8.18
2023-03-30T14:36:54.862Z,4.72
2023-03-30T14:41:19.825Z,5.03
2023-03-30T14:45:37.812Z,5.80
2023-03-30T14:50:03.103Z,4.97
2023-03-30T14:54:23.732Z,3.78
2023-03-30T14:58:42.754Z,5.82
2023-03-30T15:03:01.475Z,5.38
2023-03-30T15:07:20.789Z,5.80
2023-03-30T15:11:39.491Z,2.25
2023-03-30T15:20:14.623Z,3.00
2023-03-30T15:24:37.400Z,2.75
2023-03-30T15:28:57.901Z,5.75
2023-03-30T15:33:42.829Z,3.55
2023-03-30T15:38:29.075Z,2.25
2023-03-30T15:42:47.614Z,1.95
2023-03-30T15:47:14.647Z,3.65
2023-03-30T15:51:37.932Z,2.33
2023-03-30T15:55:56.061Z,3.50
2023-03-30T16:00:22.079Z,2.03
2023-03-30T16:04:39.297Z,1.25
2023-03-30T16:08:56.559Z,3.35
2023-03-30T16:13:14.141Z,3.03
2023-03-30T16:17:34.578Z,4.43
2023-03-30T16:21:53.092Z,2.33
2023-03-30T16:26:13.634Z,5.55
2023-03-30T16:30:38.568Z,2.20
2023-03-30T16:34:56.479Z,1.83
2023-03-30T16:39:25.531Z,2.67
2023-03-30T16:43:42.806Z,3.72
2023-03-30T16:48:00.881Z,5.72
2023-03-30T16:52:18.273Z,3.50
2023-03-30T16:56:35.901Z,4.55
2023-03-30T17:00:56.354Z,3.38
2023-03-30T17:05:14.416Z,3.40
2023-03-30T17:09:31.695Z,2.00
2023-03-30T17:13:49.189Z,5.55
2023-03-30T17:18:15.991Z,2.58
2023-03-30T17:22:33.532Z,2.58
2023-03-30T17:26:50.965Z,2.00
2023-03-30T17:31:18.074Z,2.63
2023-03-30T17:35:35.292Z,3.75
2023-03-30T17:39:52.837Z,2.70
2023-03-30T17:44:10.034Z,3.22
2023-03-30T17:48:27.220Z,2.50
2023-03-30T17:52:44.413Z,1.90
2023-03-30T17:57:01.744Z,3.95
2023-03-30T18:01:19.012Z,3.15
2023-03-30T18:05:36.404Z,3.38
2023-03-30T18:09:53.685Z,2.53
2023-03-30T18:14:11.310Z,4.18
2023-03-30T18:18:30.600Z,3.63
2023-03-30T18:22:48.937Z,2.83
2023-03-30T18:27:06.497Z,4.60
2023-03-30T18:31:23.955Z,9.45
2023-03-30T18:35:43.251Z,4.75
2023-03-30T18:40:01.053Z,4.60
2023-03-30T18:44:21.358Z,4.53
2023-03-30T18:48:38.930Z,4.82
2023-03-30T18:52:56.420Z,8.07
2023-03-30T18:57:13.893Z,6.22
2023-03-30T19:01:31.975Z,10.15
2023-03-30T19:05:50.051Z,4.13
2023-03-30T19:10:11.707Z,2.83
2023-03-30T19:14:29.099Z,2.22
2023-03-30T19:18:49.499Z,4.20
2023-03-30T19:23:08.401Z,5.00
2023-03-30T19:27:25.849Z,4.68
2023-03-30T19:31:44.329Z,4.75
2023-03-30T19:36:01.925Z,4.85
2023-03-30T19:40:21.267Z,2.65
2023-03-30T19:44:38.514Z,3.70
2023-03-30T19:48:56.896Z,2.35
2023-03-30T19:53:14.505Z,4.43
2023-03-30T19:57:31.860Z,3.75
2023-03-30T20:01:49.445Z,3.00
2023-03-30T20:06:11.832Z,4.13
2023-03-30T20:10:29.380Z,3.67
2023-03-30T20:14:46.721Z,5.65
2023-03-30T20:19:15.930Z,4.00
2023-03-30T20:23:40.281Z,5.80
2023-03-30T20:27:57.847Z,3.63
2023-03-30T20:32:16.572Z,3.80
2023-03-30T20:40:59.338Z,3.72
2023-03-30T20:45:17.771Z,3.25
2023-03-30T20:49:35.143Z,4.05
2023-03-30T20:53:52.383Z,3.67
2023-03-30T20:58:09.591Z,6.75
2023-03-30T21:02:27.720Z,3.00
2023-03-30T21:06:46.856Z,4.43
2023-03-30T21:11:04.701Z,5.40
2023-03-30T21:15:22.014Z,5.27
2023-03-30T21:19:39.233Z,3.97
2023-03-30T21:23:57.330Z,5.50
2023-03-30T21:28:15.231Z,5.20
2023-03-30T21:32:32.703Z,3.87
2023-03-30T21:36:49.936Z,7.28
2023-03-30T21:41:17.119Z,5.25
2023-03-30T21:45:34.420Z,4.95
2023-03-30T21:49:53.062Z,5.05
2023-03-30T21:54:10.884Z,3.75
2023-03-30T21:58:28.808Z,4.53
2023-03-30T22:02:46.184Z,3.57
2023-03-30T22:07:04.522Z,4.15
2023-03-30T22:11:24.281Z,6.03
2023-03-30T22:15:41.488Z,3.20
2023-03-30T22:19:58.829Z,11.35
2023-03-30T22:24:18.175Z,6.95
2023-03-30T22:28:35.859Z,5.80
2023-03-30T22:32:53.146Z,7.05
2023-03-30T22:37:10.500Z,7.15
2023-03-30T22:41:28.244Z,6.47
2023-03-30T22:45:45.939Z,10.23
2023-03-30T22:50:04.380Z,9.45
2023-03-30T22:54:21.977Z,3.70
2023-03-30T22:58:39.142Z,5.93
2023-03-30T23:02:56.528Z,4.85
2023-03-30T23:07:14.408Z,5.22
2023-03-30T23:11:32.512Z,6.15
2023-03-30T23:15:49.825Z,6.10
2023-03-30T23:20:10.147Z,6.72
2023-03-30T23:24:27.438Z,4.57
2023-03-30T23:28:45.272Z,5.53
2023-03-30T23:33:02.491Z,9.52
2023-03-30T23:37:21.960Z,8.30
2023-03-30T23:41:39.192Z,7.18
2023-03-30T23:45:56.468Z,6.45
2023-03-30T23:50:13.762Z,3.55
2023-03-30T23:54:31.658Z,6.05
2023-03-30T23:58:49.013Z,8.87
